createdAt,value
2019-05-02T00:01:30.105Z,2.10
2019-05-02T00:03:58.415Z,2.27
2019-05-02T00:06:27.692Z,2.87
2019-05-02T00:08:59.108Z,2.27
2019-05-02T00:11:29.406Z,2.50
2019-05-02T00:13:59.247Z,2.33
2019-05-02T00:16:29.341Z,2.80
2019-05-02T00:18:58.186Z,2.57
2019-05-02T00:21:26.360Z,2.47
2019-05-02T00:23:54.447Z,2.70
2019-05-02T00:26:24.579Z,2.13
2019-05-02T00:28:52.564Z,2.23
2019-05-02T00:31:21.316Z,2.33
2019-05-02T00:33:49.521Z,2.57
2019-05-02T00:36:17.627Z,2.17
2019-05-02T00:38:45.733Z,2.17
2019-05-02T00:41:13.954Z,2.43
2019-05-02T00:43:42.228Z,2.23
2019-05-02T00:46:10.559Z,2.40
2019-05-02T00:48:44.185Z,2.27
2019-05-02T00:51:12.239Z,2.33
2019-05-02T00:53:44.398Z,2.23
2019-05-02T00:56:10.801Z,2.30
2019-05-02T00:58:39.014Z,2.43
2019-05-02T01:01:29.450Z,2.30
2019-05-02T01:04:00.573Z,2.17
2019-05-02T01:06:28.933Z,2.47
2019-05-02T01:08:57.015Z,2.60
2019-05-02T01:11:28.234Z,2.33
2019-05-02T01:13:57.592Z,2.47
2019-05-02T01:16:25.862Z,2.30
2019-05-02T01:18:54.310Z,2.23
2019-05-02T01:21:22.779Z,2.50
2019-05-02T01:23:51.499Z,2.20
2019-05-02T01:26:24.174Z,2.50
2019-05-02T01:29:00.166Z,2.43
2019-05-02T01:31:44.697Z,2.50
2019-05-02T01:34:35.391Z,2.17
2019-05-02T01:37:27.739Z,2.13
2019-05-02T01:39:55.851Z,2.57
2019-05-02T01:42:23.908Z,2.47
2019-05-02T01:44:51.969Z,2.47
2019-05-02T01:47:20.055Z,1.93
2019-05-02T01:49:52.025Z,2.40
2019-05-02T01:52:23.569Z,2.67
2019-05-02T01:54:49.371Z,2.03
2019-05-02T01:57:17.416Z,2.13
2019-05-02T01:59:45.474Z,2.30
2019-05-02T02:02:13.633Z,2.30
2019-05-02T02:04:41.832Z,2.20
2019-05-02T02:07:09.889Z,2.33
2019-05-02T02:09:38.845Z,2.50
2019-05-02T02:12:09.719Z,2.50
2019-05-02T02:14:38.254Z,2.40
2019-05-02T02:17:09.977Z,2.10
2019-05-02T02:19:42.608Z,2.23
2019-05-02T02:22:29.089Z,2.40
2019-05-02T02:25:15.810Z,2.50
2019-05-02T02:27:45.551Z,2.33
2019-05-02T02:30:17.684Z,2.40
2019-05-02T02:32:45.299Z,2.20
2019-05-02T02:35:13.419Z,2.20
2019-05-02T02:37:52.121Z,2.37
2019-05-02T02:40:11.799Z,2.03
2019-05-02T02:42:39.992Z,2.37
2019-05-02T02:45:20.446Z,2.17
2019-05-02T02:47:52.970Z,2.20
2019-05-02T02:50:18.496Z,2.30
2019-05-02T02:52:47.138Z,2.30
2019-05-02T02:55:16.198Z,2.37
2019-05-02T02:57:45.774Z,2.50
2019-05-02T03:00:14.330Z,2.57
2019-05-02T03:02:47.574Z,2.20
2019-05-02T03:05:18.997Z,2.10
2019-05-02T03:07:42.511Z,2.40
2019-05-02T03:10:10.741Z,2.40
2019-05-02T03:13:04.613Z,2.60
2019-05-02T03:15:36.320Z,2.17
2019-05-02T03:18:04.427Z,2.53
2019-05-02T03:20:39.546Z,2.40
2019-05-02T03:23:03.140Z,2.50
2019-05-02T03:25:49.721Z,2.33
2019-05-02T03:28:02.308Z,2.20
2019-05-02T03:30:36.410Z,2.13
2019-05-02T03:33:10.399Z,2.40
2019-05-02T03:35:43.329Z,2.23
2019-05-02T03:38:02.960Z,2.20
2019-05-02T03:40:32.243Z,2.10
2019-05-02T03:43:01.185Z,2.17
2019-05-02T03:45:32.329Z,2.47
2019-05-02T03:48:01.874Z,2.43
2019-05-02T03:50:32.779Z,2.23
2019-05-02T03:53:00.351Z,2.00
2019-05-02T03:55:30.896Z,2.13
2019-05-02T03:57:58.578Z,2.50
2019-05-02T04:00:28.113Z,2.07
2019-05-02T04:03:00.505Z,2.30
2019-05-02T04:05:26.505Z,2.40
2019-05-02T04:07:54.806Z,2.30
2019-05-02T04:11:23.224Z,2.67
2019-05-02T04:13:55.493Z,2.10
2019-05-02T04:16:25.986Z,2.07
2019-05-02T04:18:58.388Z,2.10
2019-05-02T04:21:26.820Z,2.27
2019-05-02T04:24:06.638Z,2.30
2019-05-02T04:26:27.437Z,2.23
2019-05-02T04:28:57.281Z,2.47
2019-05-02T04:31:31.762Z,2.27
2019-05-02T04:33:55.632Z,2.50
2019-05-02T04:36:23.681Z,2.13
2019-05-02T04:38:52.716Z,2.10
2019-05-02T04:41:28.562Z,2.30
2019-05-02T04:43:57.611Z,1.90
2019-05-02T04:46:26.998Z,2.63
2019-05-02T04:48:52.961Z,2.47
2019-05-02T04:51:21.272Z,2.20
2019-05-02T04:53:50.125Z,2.10
2019-05-02T04:56:19.839Z,2.30
2019-05-02T04:58:49.391Z,2.37
2019-05-02T05:01:18.005Z,2.40
2019-05-02T05:03:49.143Z,2.10
2019-05-02T05:06:18.926Z,2.40
2019-05-02T05:08:48.266Z,2.30
2019-05-02T05:11:21.367Z,1.97
2019-05-02T05:13:47.928Z,2.50
2019-05-02T05:16:18.490Z,2.27
2019-05-02T05:18:49.339Z,2.40
2019-05-02T05:21:18.029Z,2.50
2019-05-02T05:24:07.738Z,2.47
2019-05-02T05:26:41.001Z,2.27
2019-05-02T05:29:08.304Z,2.70
2019-05-02T05:31:38.234Z,2.37
2019-05-02T05:34:09.845Z,2.30
2019-05-02T05:36:38.074Z,2.40
2019-05-02T05:39:08.513Z,2.57
2019-05-02T05:41:37.908Z,2.23
2019-05-02T05:44:07.800Z,2.20
2019-05-02T05:46:38.688Z,2.93
2019-05-02T05:49:12.526Z,2.23
2019-05-02T05:51:37.506Z,2.50
2019-05-02T05:54:07.604Z,2.40
2019-05-02T05:56:39.667Z,2.47
2019-05-02T05:59:07.854Z,2.47
2019-05-02T06:01:38.444Z,2.60
2019-05-02T06:04:07.965Z,2.27
2019-05-02T06:06:37.760Z,2.53
2019-05-02T06:09:07.704Z,2.70
2019-05-02T06:11:35.769Z,2.60
2019-05-02T06:14:04.430Z,2.67
2019-05-02T06:16:35.087Z,2.33
2019-05-02T06:19:02.857Z,2.57
2019-05-02T06:21:31.081Z,2.47
2019-05-02T06:23:59.224Z,2.80
2019-05-02T06:26:27.251Z,2.40
2019-05-02T06:28:55.416Z,2.70
2019-05-02T06:31:23.418Z,2.40
2019-05-02T06:33:51.522Z,2.37
2019-05-02T06:36:19.573Z,2.57
2019-05-02T06:38:52.261Z,2.77
2019-05-02T06:41:21.015Z,2.50
2019-05-02T06:43:48.349Z,2.57
2019-05-02T06:46:21.498Z,2.77
2019-05-02T06:48:48.171Z,2.43
2019-05-02T06:51:19.512Z,2.67
2019-05-02T06:53:47.003Z,2.50
2019-05-02T06:56:16.494Z,3.23
2019-05-02T06:58:44.548Z,3.07
2019-05-02T07:01:16.306Z,2.47
2019-05-02T07:03:46.233Z,2.57
2019-05-02T07:06:13.235Z,2.87
2019-05-02T07:08:41.645Z,2.53
2019-05-02T07:11:09.747Z,2.50
2019-05-02T07:13:42.031Z,2.50
2019-05-02T07:16:37.478Z,2.63
2019-05-02T07:19:02.361Z,2.77
2019-05-02T07:21:31.113Z,3.03
2019-05-02T07:23:59.318Z,2.87
2019-05-02T07:26:27.370Z,2.80
2019-05-02T07:28:55.474Z,3.00
2019-05-02T07:31:23.498Z,2.70
2019-05-02T07:33:51.586Z,2.60
2019-05-02T07:36:19.746Z,3.07
2019-05-02T07:38:48.836Z,2.97
2019-05-02T07:41:19.106Z,3.23
2019-05-02T07:43:47.287Z,2.77
2019-05-02T07:46:22.154Z,2.90
2019-05-02T07:48:54.697Z,3.10
2019-05-02T07:51:21.356Z,3.30
2019-05-02T07:53:50.412Z,3.30
2019-05-02T07:56:18.985Z,3.07
2019-05-02T07:58:48.132Z,2.80
2019-05-02T08:01:16.236Z,2.90
2019-05-02T08:03:44.468Z,3.07
2019-05-02T08:06:12.554Z,2.70
2019-05-02T08:08:40.892Z,3.40
2019-05-02T08:11:09.082Z,3.13
2019-05-02T08:13:37.113Z,3.17
2019-05-02T08:16:05.495Z,3.50
2019-05-02T08:18:33.608Z,3.33
2019-05-02T08:21:02.087Z,2.93
2019-05-02T08:23:30.446Z,3.63
2019-05-02T08:25:58.657Z,3.47
2019-05-02T08:28:37.785Z,3.60
2019-05-02T08:31:08.124Z,3.73
2019-05-02T08:33:36.167Z,3.60
2019-05-02T08:36:07.162Z,4.07
2019-05-02T08:38:35.412Z,4.27
2019-05-02T08:41:03.491Z,3.67
2019-05-02T08:43:31.704Z,4.10
2019-05-02T08:46:01.552Z,4.60
2019-05-02T08:48:29.597Z,4.17
2019-05-02T08:50:58.117Z,4.43
2019-05-02T08:53:26.165Z,4.47
2019-05-02T08:55:55.331Z,3.83
2019-05-02T08:58:23.403Z,4.40
2019-05-02T09:00:51.586Z,4.03
2019-05-02T09:03:19.666Z,4.57
2019-05-02T09:05:48.028Z,4.47
2019-05-02T09:08:16.596Z,4.83
2019-05-02T09:10:45.408Z,4.83
2019-05-02T09:13:17.964Z,4.20
2019-05-02T09:15:49.790Z,4.30
2019-05-02T09:18:13.791Z,4.37
2019-05-02T09:20:42.444Z,4.87
2019-05-02T09:23:12.409Z,4.30
2019-05-02T09:25:42.848Z,4.57
2019-05-02T09:28:12.465Z,4.17
2019-05-02T09:30:42.686Z,4.37
2019-05-02T09:33:11.857Z,4.00
2019-05-02T09:35:42.197Z,4.40
2019-05-02T09:38:26.930Z,4.50
2019-05-02T09:40:56.975Z,4.57
2019-05-02T09:43:29.324Z,3.90
2019-05-02T09:45:58.624Z,4.60
2019-05-02T09:48:27.023Z,4.20
2019-05-02T09:50:57.756Z,4.83
2019-05-02T09:53:25.655Z,4.63
2019-05-02T09:55:57.708Z,4.33
2019-05-02T09:58:24.167Z,4.93
2019-05-02T10:01:01.995Z,4.33
2019-05-02T10:03:31.906Z,4.30
2019-05-02T10:06:03.122Z,4.50
2019-05-02T10:08:32.268Z,4.83
2019-05-02T10:11:02.597Z,4.43
2019-05-02T10:13:31.944Z,4.10
2019-05-02T10:16:02.064Z,4.43
2019-05-02T10:18:32.806Z,4.40
2019-05-02T10:21:02.806Z,4.07
2019-05-02T10:23:32.102Z,4.13
2019-05-02T10:26:02.692Z,4.23
2019-05-02T10:28:32.463Z,4.20
2019-05-02T10:31:02.280Z,3.97
2019-05-02T10:33:33.710Z,4.03
2019-05-02T10:36:02.541Z,3.57
2019-05-02T10:38:32.611Z,4.20
2019-05-02T10:41:02.676Z,3.97
2019-05-02T10:43:32.924Z,4.40
2019-05-02T10:46:12.577Z,3.87
2019-05-02T10:48:46.646Z,3.77
2019-05-02T10:51:34.793Z,4.27
2019-05-02T10:54:06.384Z,3.57
2019-05-02T10:56:35.951Z,3.40
2019-05-02T10:59:04.816Z,3.57
2019-05-02T11:01:47.681Z,3.87
2019-05-02T11:04:16.538Z,4.40
2019-05-02T11:06:46.272Z,3.77
2019-05-02T11:09:16.802Z,3.87
2019-05-02T11:11:45.851Z,3.90
2019-05-02T11:14:26.598Z,3.47
2019-05-02T11:17:13.935Z,3.70
2019-05-02T11:19:56.554Z,4.07
2019-05-02T11:22:24.926Z,3.43
2019-05-02T11:24:52.964Z,4.10
2019-05-02T11:27:22.118Z,4.37
2019-05-02T11:29:52.525Z,4.07
2019-05-02T11:32:22.110Z,4.10
2019-05-02T11:34:52.282Z,4.23
2019-05-02T11:37:20.333Z,4.60
2019-05-02T11:39:52.323Z,5.00
2019-05-02T11:42:23.248Z,4.30
2019-05-02T11:44:49.457Z,4.20
2019-05-02T11:47:21.827Z,4.47
2019-05-02T11:49:52.152Z,4.00
2019-05-02T11:52:19.290Z,4.20
2019-05-02T11:54:48.660Z,3.80
2019-05-02T11:57:21.259Z,3.70
2019-05-02T11:59:47.592Z,3.77
2019-05-02T12:02:41.622Z,3.93
2019-05-02T12:05:12.792Z,3.87
2019-05-02T12:07:41.798Z,3.60
2019-05-02T12:10:12.389Z,4.13
2019-05-02T12:12:40.287Z,3.83
2019-05-02T12:15:11.482Z,4.43
2019-05-02T12:17:41.886Z,4.33
2019-05-02T12:20:11.853Z,4.03
2019-05-02T12:22:41.940Z,4.13
2019-05-02T12:25:12.458Z,3.97
2019-05-02T12:27:42.483Z,3.87
2019-05-02T12:30:11.802Z,4.30
2019-05-02T12:32:39.974Z,4.13
2019-05-02T12:35:09.290Z,4.03
2019-05-02T12:37:37.471Z,3.90
2019-05-02T12:40:07.742Z,3.57
2019-05-02T12:42:36.906Z,4.13
2019-05-02T12:45:06.511Z,3.97
2019-05-02T12:47:34.761Z,3.77
2019-05-02T12:50:03.326Z,3.40
2019-05-02T12:52:32.098Z,3.87
2019-05-02T12:55:02.132Z,4.10
2019-05-02T12:57:32.102Z,3.80
2019-05-02T13:00:01.873Z,4.00
2019-05-02T13:02:56.137Z,3.67
2019-05-02T13:05:24.234Z,3.87
2019-05-02T13:07:55.274Z,4.07
2019-05-02T13:10:32.734Z,3.80
2019-05-02T13:13:02.822Z,4.07
2019-05-02T13:15:32.809Z,4.20
2019-05-02T13:18:03.004Z,3.93
2019-05-02T13:20:34.730Z,4.37
2019-05-02T13:23:35.432Z,4.17
2019-05-02T13:26:02.491Z,3.53
2019-05-02T13:28:32.445Z,4.70
2019-05-02T13:31:11.753Z,4.13
2019-05-02T13:33:47.197Z,3.87
2019-05-02T13:36:39.122Z,3.30
2019-05-02T13:39:13.110Z,3.47
2019-05-02T13:41:42.810Z,2.60
2019-05-02T13:44:13.092Z,2.37
2019-05-02T13:46:41.965Z,2.57
2019-05-02T13:49:12.776Z,3.10
2019-05-02T13:51:42.624Z,3.23
2019-05-02T13:54:12.573Z,3.33
2019-05-02T13:56:53.150Z,3.50
2019-05-02T13:59:22.997Z,3.40
2019-05-02T14:01:52.879Z,3.17
2019-05-02T14:04:23.258Z,3.37
2019-05-02T14:06:53.107Z,3.67
2019-05-02T14:09:39.794Z,3.60
2019-05-02T14:12:23.523Z,3.63
2019-05-02T14:14:54.105Z,3.03
2019-05-02T14:17:22.936Z,3.13
2019-05-02T14:20:01.197Z,3.13
2019-05-02T14:22:22.631Z,2.80
2019-05-02T14:24:51.935Z,3.00
2019-05-02T14:27:22.349Z,3.13
2019-05-02T14:29:52.498Z,3.00
2019-05-02T14:32:26.187Z,2.77
2019-05-02T14:35:13.383Z,3.10
2019-05-02T14:37:42.825Z,2.70
2019-05-02T14:40:24.835Z,3.03
2019-05-02T14:42:53.104Z,3.30
2019-05-02T14:45:30.820Z,3.33
2019-05-02T14:47:57.570Z,2.80
2019-05-02T14:50:26.396Z,3.00
2019-05-02T14:52:52.722Z,2.87
2019-05-02T14:55:23.959Z,2.70
2019-05-02T14:57:52.624Z,2.87
2019-05-02T15:00:25.586Z,3.20
2019-05-02T15:02:55.690Z,2.73
2019-05-02T15:05:29.493Z,3.00
2019-05-02T15:07:56.755Z,2.63
2019-05-02T15:10:24.974Z,3.00
2019-05-02T15:12:59.487Z,3.03
2019-05-02T15:15:23.244Z,2.83
2019-05-02T15:17:53.114Z,2.90
2019-05-02T15:20:22.395Z,2.60
2019-05-02T15:22:52.302Z,2.67
2019-05-02T15:25:21.745Z,2.67
2019-05-02T15:27:58.567Z,2.67
2019-05-02T15:30:23.992Z,3.07
2019-05-02T15:32:57.372Z,2.83
2019-05-02T15:36:01.920Z,2.60
2019-05-02T15:38:29.399Z,2.40
2019-05-02T15:40:59.123Z,2.37
2019-05-02T15:43:31.686Z,2.67
2019-05-02T15:45:59.630Z,2.87
2019-05-02T15:48:27.906Z,2.30
2019-05-02T15:51:00.207Z,2.47
2019-05-02T15:53:49.750Z,2.43
2019-05-02T15:56:20.301Z,2.53
2019-05-02T15:58:46.088Z,2.13
2019-05-02T16:01:32.184Z,2.50
2019-05-02T16:04:01.740Z,2.23
2019-05-02T16:06:33.657Z,2.77
2019-05-02T16:09:02.328Z,2.50
2019-05-02T16:11:32.685Z,2.90
2019-05-02T16:14:02.192Z,3.00
2019-05-02T16:16:32.056Z,3.07
2019-05-02T16:19:02.169Z,2.90
2019-05-02T16:21:42.687Z,2.83
2019-05-02T16:24:19.978Z,2.57
2019-05-02T16:26:49.643Z,3.10
2019-05-02T16:29:24.325Z,2.57
2019-05-02T16:31:59.768Z,3.27
2019-05-02T16:34:27.453Z,3.57
2019-05-02T16:37:13.476Z,3.07
2019-05-02T16:39:42.532Z,3.60
2019-05-02T16:42:12.434Z,3.33
2019-05-02T16:44:42.735Z,3.20
2019-05-02T16:47:10.876Z,3.10
2019-05-02T16:49:47.874Z,3.03
2019-05-02T16:52:16.185Z,2.87
2019-05-02T16:55:06.533Z,2.70
2019-05-02T16:57:35.284Z,2.80
2019-05-02T17:00:06.362Z,2.60
2019-05-02T17:02:43.599Z,2.83
2019-05-02T17:05:12.086Z,2.67
2019-05-02T17:07:54.121Z,2.50
2019-05-02T17:10:28.932Z,2.50
2019-05-02T17:13:00.272Z,2.90
2019-05-02T17:15:35.206Z,2.70
2019-05-02T17:18:12.984Z,2.17
2019-05-02T17:20:54.913Z,2.70
2019-05-02T17:23:19.578Z,3.33
2019-05-02T17:25:47.615Z,2.90
2019-05-02T17:28:16.045Z,2.53
2019-05-02T17:30:44.450Z,3.00
2019-05-02T17:33:16.304Z,3.10
2019-05-02T17:35:49.907Z,2.80
2019-05-02T17:38:18.975Z,2.87
2019-05-02T17:40:46.138Z,2.80
2019-05-02T17:43:15.928Z,3.00
2019-05-02T17:45:43.983Z,3.00
2019-05-02T17:48:16.569Z,3.33
2019-05-02T17:50:58.907Z,3.27
2019-05-02T17:53:24.551Z,2.93
2019-05-02T17:55:52.686Z,3.20
2019-05-02T17:58:21.267Z,3.17
2019-05-02T18:00:52.301Z,3.27
2019-05-02T18:03:24.058Z,3.20
2019-05-02T18:05:52.985Z,2.90
2019-05-02T18:08:21.863Z,2.90
2019-05-02T18:10:50.590Z,2.83
2019-05-02T18:13:20.223Z,3.17
2019-05-02T18:15:48.284Z,2.97
2019-05-02T18:18:17.309Z,3.37
2019-05-02T18:20:46.594Z,3.03
2019-05-02T18:23:18.759Z,3.07
2019-05-02T18:25:47.092Z,2.93
2019-05-02T18:28:22.237Z,2.70
2019-05-02T18:30:45.499Z,3.13
2019-05-02T18:33:13.721Z,2.80
2019-05-02T18:35:46.806Z,3.07
2019-05-02T18:38:16.029Z,3.17
2019-05-02T18:40:43.632Z,3.03
2019-05-02T18:43:11.734Z,3.10
2019-05-02T18:45:42.573Z,2.67
2019-05-02T18:48:12.705Z,2.60
2019-05-02T18:50:46.930Z,2.40
2019-05-02T18:53:13.766Z,2.47
2019-05-02T18:55:42.412Z,2.47
2019-05-02T18:58:12.792Z,2.47
2019-05-02T19:00:42.096Z,2.53
2019-05-02T19:03:13.225Z,2.23
2019-05-02T19:05:42.250Z,2.77
2019-05-02T19:08:12.032Z,3.03
2019-05-02T19:10:44.695Z,3.17
2019-05-02T19:13:12.859Z,2.60
2019-05-02T19:15:45.445Z,2.43
2019-05-02T19:18:18.023Z,2.40
2019-05-02T19:21:07.966Z,2.13
2019-05-02T19:23:37.530Z,2.40
2019-05-02T19:26:14.636Z,2.57
2019-05-02T19:28:56.192Z,2.00
2019-05-02T19:31:36.642Z,2.00
2019-05-02T19:34:04.847Z,1.90
2019-05-02T19:36:32.945Z,2.37
2019-05-02T19:39:06.345Z,1.90
2019-05-02T19:41:32.315Z,1.80
2019-05-02T19:44:02.325Z,1.80
2019-05-02T19:46:38.575Z,1.70
2019-05-02T19:49:02.148Z,2.13
2019-05-02T19:51:31.704Z,1.63
2019-05-02T19:54:03.227Z,1.80
2019-05-02T19:56:33.334Z,1.90
2019-05-02T19:59:00.000Z,1.73
2019-05-02T20:01:28.045Z,1.90
2019-05-02T20:03:56.809Z,1.87
2019-05-02T20:06:26.165Z,1.60
2019-05-02T20:08:59.335Z,1.87
2019-05-02T20:11:28.097Z,2.00
2019-05-02T20:13:54.625Z,1.73
2019-05-02T20:16:44.186Z,1.90
2019-05-02T20:19:08.027Z,1.70
2019-05-02T20:21:44.471Z,1.93
2019-05-02T20:24:17.368Z,1.90
2019-05-02T20:26:46.777Z,1.50
2019-05-02T20:29:12.587Z,1.90
2019-05-02T20:31:40.632Z,1.90
2019-05-02T20:34:08.713Z,1.80
2019-05-02T20:36:37.427Z,1.83
2019-05-02T20:39:08.151Z,1.77
2019-05-02T20:41:36.737Z,2.30
2019-05-02T20:44:05.166Z,1.93
2019-05-02T20:46:33.400Z,1.90
2019-05-02T20:49:02.107Z,2.17
2019-05-02T20:51:31.956Z,2.03
2019-05-02T20:54:01.920Z,2.30
2019-05-02T20:56:32.028Z,2.17
2019-05-02T20:59:01.975Z,2.53
2019-05-02T21:01:32.175Z,2.57
2019-05-02T21:04:02.910Z,2.30
2019-05-02T21:06:53.510Z,2.40
2019-05-02T21:09:42.403Z,2.13
2019-05-02T21:12:12.610Z,2.67
2019-05-02T21:14:41.615Z,2.70
2019-05-02T21:17:09.691Z,2.97
2019-05-02T21:19:38.192Z,2.67
2019-05-02T21:22:15.877Z,2.73
2019-05-02T21:24:45.049Z,2.63
2019-05-02T21:27:13.080Z,2.87
2019-05-02T21:29:42.574Z,2.67
2019-05-02T21:32:12.117Z,2.33
2019-05-02T21:34:42.476Z,2.63
2019-05-02T21:37:11.289Z,2.40
2019-05-02T21:39:39.359Z,2.93
2019-05-02T21:42:08.526Z,2.70
2019-05-02T21:44:36.621Z,2.87
2019-05-02T21:47:05.821Z,2.47
2019-05-02T21:49:49.877Z,2.83
2019-05-02T21:52:37.543Z,2.80
2019-05-02T21:55:16.220Z,2.70
2019-05-02T21:57:44.262Z,2.50
2019-05-02T22:00:38.755Z,2.73
2019-05-02T22:03:08.193Z,2.73
2019-05-02T22:05:36.365Z,2.70
2019-05-02T22:08:04.600Z,2.83
2019-05-02T22:10:33.044Z,2.63
2019-05-02T22:13:03.488Z,3.10
2019-05-02T22:15:32.508Z,3.00
2019-05-02T22:18:01.682Z,3.17
2019-05-02T22:20:32.041Z,3.07
2019-05-02T22:23:00.146Z,2.87
2019-05-02T22:25:28.234Z,3.17
2019-05-02T22:27:56.682Z,2.93
2019-05-02T22:30:24.781Z,3.30
2019-05-02T22:32:54.335Z,3.53
2019-05-02T22:35:22.537Z,3.33
2019-05-02T22:37:53.502Z,3.17
2019-05-02T22:40:23.422Z,3.43
2019-05-02T22:42:52.313Z,3.37
2019-05-02T22:45:21.808Z,3.87
2019-05-02T22:47:51.951Z,3.70
2019-05-02T22:50:21.919Z,3.47
2019-05-02T22:52:52.092Z,3.23
2019-05-02T22:55:19.984Z,3.13
2019-05-02T22:57:51.672Z,3.77
2019-05-02T23:00:19.495Z,3.50
2019-05-02T23:02:49.806Z,3.33
2019-05-02T23:05:17.844Z,3.60
2019-05-02T23:07:46.282Z,3.53
2019-05-02T23:10:14.422Z,3.30
2019-05-02T23:12:42.685Z,3.37
2019-05-02T23:15:12.541Z,3.43
2019-05-02T23:17:42.809Z,3.07
2019-05-02T23:20:12.772Z,3.67
2019-05-02T23:22:41.823Z,3.33
2019-05-02T23:25:40.314Z,3.40
2019-05-02T23:28:13.884Z,3.47
2019-05-02T23:30:43.665Z,3.33
2019-05-02T23:33:12.958Z,3.40
2019-05-02T23:35:43.054Z,3.07
2019-05-02T23:38:12.579Z,3.17
2019-05-02T23:40:42.092Z,3.27
2019-05-02T23:43:12.395Z,3.50
2019-05-02T23:45:42.188Z,3.20
2019-05-02T23:48:10.405Z,3.30
2019-05-02T23:50:40.055Z,3.43
2019-05-02T23:53:08.132Z,3.43
2019-05-02T23:55:37.328Z,3.43
2019-05-02T23:58:05.384Z,3.30
